createdAt,value
2022-08-18T00:02:35.241Z,100521.81
2022-08-18T00:05:15.028Z,100529.06
2022-08-18T00:07:54.875Z,100520.38
2022-08-18T00:10:49.102Z,100527.19
2022-08-18T00:14:03.043Z,100530.72
2022-08-18T00:16:45.822Z,100524.13
2022-08-18T00:19:45.944Z,100521.63
2022-08-18T00:22:29.298Z,100513.75
2022-08-18T00:25:13.611Z,100518.34
2022-08-18T00:27:53.147Z,100516.47
2022-08-18T00:30:32.999Z,100511.28
2022-08-18T00:33:14.626Z,100511.28
2022-08-18T00:35:56.551Z,100509.66
2022-08-18T00:38:38.357Z,100505.50
2022-08-18T00:41:17.654Z,100504.69
2022-08-18T00:43:58.615Z,100496.81
2022-08-18T00:46:38.884Z,100502.22
2022-08-18T00:49:19.474Z,100504.28
2022-08-18T00:52:00.655Z,100506.34
2022-08-18T00:54:41.631Z,100507.38
2022-08-18T00:57:25.408Z,100503.88
2022-08-18T01:00:11.539Z,100497.28
2022-08-18T01:02:56.294Z,100498.09
2022-08-18T01:05:40.758Z,100503.09
2022-08-18T01:08:29.267Z,100504.53
2022-08-18T01:11:10.473Z,100508.69
2022-08-18T01:13:53.903Z,100510.56
2022-08-18T01:16:57.358Z,100513.44
2022-08-18T01:19:58.289Z,100505.34
2022-08-18T01:22:49.250Z,100501.44
2022-08-18T01:26:12.778Z,100499.97
2022-08-18T01:28:54.030Z,100503.50
2022-08-18T01:31:38.885Z,100492.56
2022-08-18T01:34:21.469Z,100500.19
2022-08-18T01:37:00.893Z,100504.97
2022-08-18T01:41:22.761Z,100495.06
2022-08-18T01:42:45.656Z,100494.19
2022-08-18T01:45:25.215Z,100497.09
2022-08-18T01:48:05.263Z,100494.59
2022-08-18T01:50:45.537Z,100495.66
2022-08-18T01:53:27.547Z,100501.44
2022-08-18T01:56:07.753Z,100485.31
2022-08-18T01:58:50.064Z,100484.66
2022-08-18T02:01:45.293Z,100495.03
2022-08-18T02:04:36.068Z,100488.22
2022-08-18T02:07:18.012Z,100485.09
2022-08-18T02:09:58.178Z,100475.16
2022-08-18T02:12:41.991Z,100479.31
2022-08-18T02:15:34.768Z,100400.84
2022-08-18T02:18:25.696Z,100382.63
2022-08-18T02:21:19.806Z,100379.09
2022-08-18T02:24:00.460Z,100370.63
2022-08-18T02:26:40.801Z,100367.91
2022-08-18T02:29:20.092Z,100377.66
2022-08-18T02:32:14.455Z,100370.63
2022-08-18T02:34:54.784Z,100374.78
2022-08-18T02:37:35.094Z,100378.06
2022-08-18T02:40:15.689Z,100379.28
2022-08-18T02:42:57.809Z,100364.41
2022-08-18T02:45:37.695Z,100362.53
2022-08-18T02:48:34.065Z,100370.19
2022-08-18T02:51:15.979Z,100367.28
2022-08-18T02:53:59.233Z,100363.53
2022-08-18T02:56:41.575Z,100376.56
2022-08-18T02:59:27.557Z,100363.97
2022-08-18T03:02:08.030Z,100371.63
2022-08-18T03:04:48.407Z,100374.53
2022-08-18T03:07:28.267Z,100375.56
2022-08-18T03:10:33.388Z,100380.94
2022-08-18T03:13:10.223Z,100380.34
2022-08-18T03:15:54.695Z,100386.75
2022-08-18T03:18:36.412Z,100396.31
2022-08-18T03:21:21.341Z,100400.66
2022-08-18T03:24:02.852Z,100397.13
2022-08-18T03:26:45.785Z,100403.13
2022-08-18T03:29:37.985Z,100415.75
2022-08-18T03:32:18.742Z,100415.75
2022-08-18T03:34:59.309Z,100416.97
2022-08-18T03:37:39.480Z,100421.34
2022-08-18T03:40:19.791Z,100432.53
2022-08-18T03:43:06.435Z,100430.06
2022-08-18T03:46:09.664Z,100421.97
2022-08-18T03:48:49.780Z,100421.78
2022-08-18T03:51:32.893Z,100413.28
2022-08-18T03:54:17.348Z,100409.75
2022-08-18T03:57:00.379Z,100411.22
2022-08-18T03:59:43.488Z,100411.44
2022-08-18T04:02:24.187Z,100406.88
2022-08-18T04:05:12.317Z,100412.25
2022-08-18T04:07:54.474Z,100412.44
2022-08-18T04:10:35.440Z,100416.59
2022-08-18T04:13:16.181Z,100418.66
2022-08-18T04:15:56.015Z,100410.38
2022-08-18T04:18:36.011Z,100414.75
2022-08-18T04:21:15.527Z,100418.28
2022-08-18T04:23:55.395Z,100409.56
2022-08-18T04:26:37.569Z,100409.56
2022-08-18T04:29:21.592Z,100412.25
2022-08-18T04:32:04.659Z,100409.59
2022-08-18T04:34:44.401Z,100410.38
2022-08-18T04:37:24.036Z,100414.94
2022-08-18T04:40:05.318Z,100426.75
2022-08-18T04:42:44.744Z,100431.50
2022-08-18T04:45:25.015Z,100431.91
2022-08-18T04:48:07.493Z,100432.72
2022-08-18T04:50:49.860Z,100433.34
2022-08-18T04:53:47.723Z,100442.88
2022-08-18T04:56:30.352Z,100446.78
2022-08-18T04:59:11.641Z,100445.97
2022-08-18T05:01:51.103Z,100450.50
2022-08-18T05:04:34.700Z,100448.03
2022-08-18T05:07:22.526Z,100450.31
2022-08-18T05:10:06.134Z,100446.78
2022-08-18T05:12:49.118Z,100448.88
2022-08-18T05:15:42.145Z,100449.50
2022-08-18T05:18:30.225Z,100444.72
2022-08-18T05:21:14.421Z,100446.16
2022-08-18T05:23:54.355Z,100444.28
2022-08-18T05:26:34.310Z,100449.03
2022-08-18T05:29:19.100Z,100454.19
2022-08-18T05:32:03.560Z,100455.47
2022-08-18T05:34:43.578Z,100453.38
2022-08-18T05:37:28.114Z,100453.94
2022-08-18T05:40:17.664Z,100457.47
2022-08-18T05:43:00.097Z,100451.00
2022-08-18T05:45:40.627Z,100456.16
2022-08-18T05:48:21.377Z,100459.66
2022-08-18T05:51:05.118Z,100459.59
2022-08-18T05:54:04.439Z,100462.91
2022-08-18T05:56:49.068Z,100469.31
2022-08-18T05:59:32.822Z,100530.63
2022-08-18T06:02:17.147Z,100534.31
2022-08-18T06:05:00.650Z,100537.00
2022-08-18T06:08:03.578Z,100539.88
2022-08-18T06:10:50.986Z,100541.53
2022-08-18T06:13:31.558Z,100539.81
2022-08-18T06:16:19.195Z,100556.16
2022-08-18T06:19:02.374Z,100560.72
2022-08-18T06:21:50.143Z,100566.50
2022-08-18T06:24:33.477Z,100566.66
2022-08-18T06:27:20.725Z,100577.44
2022-08-18T06:30:43.564Z,100572.66
2022-08-18T06:33:41.724Z,100586.69
2022-08-18T06:36:29.216Z,100590.38
2022-08-18T06:39:27.711Z,100601.59
2022-08-18T06:42:21.522Z,100612.78
2022-08-18T06:45:03.984Z,100613.81
2022-08-18T06:47:53.321Z,100611.28
2022-08-18T06:50:35.834Z,100616.31
2022-08-18T06:53:19.060Z,100621.09
2022-08-18T06:56:25.862Z,100621.09
2022-08-18T06:59:25.161Z,100617.72
2022-08-18T07:02:18.170Z,100622.75
2022-08-18T07:05:02.795Z,100634.34
2022-08-18T07:07:43.269Z,100637.50
2022-08-18T07:10:38.399Z,100645.38
2022-08-18T07:13:21.235Z,100646.19
2022-08-18T07:16:30.152Z,100654.72
2022-08-18T07:19:20.334Z,100658.47
2022-08-18T07:22:06.555Z,100652.28
2022-08-18T07:24:48.545Z,100656.78
2022-08-18T07:27:44.494Z,100675.50
2022-08-18T07:30:34.006Z,100669.31
2022-08-18T07:33:34.500Z,100670.16
2022-08-18T07:36:17.030Z,100668.91
2022-08-18T07:38:59.801Z,100671.75
2022-08-18T07:41:43.896Z,100658.88
2022-08-18T07:44:27.335Z,100668.41
2022-08-18T07:47:23.624Z,100668.41
2022-08-18T07:50:23.117Z,100671.31
2022-08-18T07:53:14.716Z,100672.94
2022-08-18T07:55:58.592Z,100678.50
2022-08-18T07:58:44.256Z,100677.44
2022-08-18T08:01:30.201Z,100675.75
2022-08-18T08:04:25.933Z,100683.16
2022-08-18T08:07:27.957Z,100674.75
2022-08-18T08:10:23.838Z,100675.44
2022-08-18T08:13:26.044Z,100693.19
2022-08-18T08:16:22.671Z,100696.88
2022-08-18T08:19:12.364Z,100694.28
2022-08-18T08:21:59.162Z,100691.91
2022-08-18T08:24:43.309Z,100693.63
2022-08-18T08:27:27.265Z,100695.44
2022-08-18T08:30:11.190Z,100699.28
2022-08-18T08:33:01.393Z,100700.91
2022-08-18T08:35:47.303Z,100704.81
2022-08-18T08:38:42.372Z,100709.28
2022-08-18T08:41:31.689Z,100713.63
2022-08-18T08:44:17.124Z,100724.59
2022-08-18T08:47:01.133Z,100716.38
2022-08-18T08:49:43.194Z,100729.91
2022-08-18T08:52:28.225Z,100739.75
2022-08-18T08:55:12.662Z,100747.88
2022-08-18T08:57:57.179Z,100738.19
2022-08-18T09:00:38.264Z,100750.94
2022-08-18T09:03:31.145Z,100751.81
2022-08-18T09:06:20.675Z,100750.66
2022-08-18T09:09:16.048Z,100735.75
2022-08-18T09:12:24.793Z,100739.28
2022-08-18T09:15:21.818Z,100745.91
2022-08-18T09:18:30.141Z,100752.19
2022-08-18T09:21:19.107Z,100754.66
2022-08-18T09:24:21.728Z,100753.28
2022-08-18T09:27:17.186Z,100755.69
2022-08-18T09:30:01.787Z,100760.06
2022-08-18T09:32:56.781Z,100758.56
2022-08-18T09:35:46.041Z,100762.22
2022-08-18T09:38:50.384Z,100758.31
2022-08-18T09:41:37.831Z,100755.88
2022-08-18T09:44:55.405Z,100772.50
2022-08-18T09:48:08.714Z,100759.94
2022-08-18T09:51:01.560Z,100762.28
2022-08-18T09:54:12.260Z,100768.28
2022-08-18T10:00:31.232Z,100767.09
2022-08-18T10:03:25.655Z,100771.16
2022-08-18T10:09:36.905Z,100778.97
2022-08-18T10:13:05.322Z,100774.19
2022-08-18T10:16:10.167Z,100777.53
2022-08-18T10:19:10.485Z,100785.91
2022-08-18T10:22:06.954Z,100791.06
2022-08-18T10:24:55.232Z,100776.63
2022-08-18T10:27:50.908Z,100780.63
2022-08-18T10:31:06.227Z,100786.34
2022-08-18T10:34:16.462Z,100786.50
2022-08-18T10:37:19.663Z,100779.78
2022-08-18T10:40:14.951Z,100775.56
2022-08-18T10:46:24.901Z,100770.53
2022-08-18T10:49:21.302Z,100785.50
2022-08-18T10:52:23.022Z,100765.47
2022-08-18T10:55:14.484Z,100769.25
2022-08-18T10:58:10.846Z,100773.06
2022-08-18T11:01:04.906Z,100760.81
2022-08-18T11:04:14.479Z,100768.19
2022-08-18T11:07:10.913Z,100764.63
2022-08-18T11:13:07.688Z,100764.63
2022-08-18T11:16:01.080Z,100773.50
2022-08-18T11:18:43.924Z,100780.41
2022-08-18T11:21:32.481Z,100776.09
2022-08-18T11:24:17.120Z,100769.53
2022-08-18T11:27:20.531Z,100778.03
2022-08-18T11:30:30.633Z,100781.84
2022-08-18T11:33:23.242Z,100780.50
2022-08-18T11:36:07.417Z,100776.09
2022-08-18T11:38:56.447Z,100764.28
2022-08-18T11:41:48.736Z,100764.75
2022-08-18T11:44:33.173Z,100769.00
2022-08-18T11:47:20.071Z,100769.50
2022-08-18T11:50:11.961Z,100769.25
2022-08-18T11:56:30.529Z,100775.59
2022-08-18T11:59:53.991Z,100768.47
2022-08-18T12:02:44.744Z,100764.69
2022-08-18T12:05:25.997Z,100759.28
2022-08-18T12:14:35.448Z,100754.69
2022-08-18T12:17:16.814Z,100740.72
2022-08-18T12:19:59.845Z,100756.09
2022-08-18T12:22:43.359Z,100753.13
2022-08-18T12:25:25.590Z,100745.47
2022-08-18T12:28:05.726Z,100744.66
2022-08-18T12:30:57.166Z,100736.41
2022-08-18T12:33:47.939Z,100735.06
2022-08-18T12:36:38.813Z,100732.06
2022-08-18T12:39:20.061Z,100726.88
2022-08-18T12:42:02.288Z,100732.59
2022-08-18T12:44:43.212Z,100733.97
2022-08-18T12:47:26.267Z,100732.84
2022-08-18T12:50:12.074Z,100724.94
2022-08-18T12:52:54.286Z,100720.53
2022-08-18T12:55:45.561Z,100717.28
2022-08-18T12:58:27.308Z,100719.44
2022-08-18T13:01:26.881Z,100720.75
2022-08-18T13:04:13.090Z,100717.41
2022-08-18T13:07:07.934Z,100710.56
2022-08-18T13:09:53.686Z,100711.09
2022-08-18T13:12:37.611Z,100700.91
2022-08-18T13:15:17.691Z,100701.03
2022-08-18T13:17:59.049Z,100711.63
2022-08-18T13:20:39.664Z,100721.22
2022-08-18T13:23:28.330Z,100721.72
2022-08-18T13:26:15.270Z,100727.16
2022-08-18T13:28:57.892Z,100726.69
2022-08-18T13:31:37.940Z,100709.34
2022-08-18T13:34:20.505Z,100708.94
2022-08-18T13:37:02.092Z,100701.63
2022-08-18T13:39:43.896Z,100700.50
2022-08-18T13:42:34.454Z,100707.09
2022-08-18T13:45:31.585Z,100718.91
2022-08-18T13:48:13.043Z,100719.53
2022-08-18T13:50:56.500Z,100728.78
2022-08-18T13:53:50.925Z,100734.88
2022-08-18T13:56:32.571Z,100736.63
2022-08-18T13:59:16.693Z,100738.88
2022-08-18T14:02:05.883Z,100721.34
2022-08-18T14:04:49.331Z,100728.56
2022-08-18T14:07:44.430Z,100719.88
2022-08-18T14:10:24.994Z,100715.25
2022-08-18T14:13:19.959Z,100709.34
2022-08-18T14:16:01.155Z,100706.97
2022-08-18T14:19:10.540Z,100699.94
2022-08-18T14:22:12.248Z,100702.44
2022-08-18T14:25:09.094Z,100694.78
2022-08-18T14:27:56.747Z,100693.97
2022-08-18T14:30:37.089Z,100684.72
2022-08-18T14:36:09.377Z,100692.41
2022-08-18T14:38:51.719Z,100687.50
2022-08-18T14:41:32.811Z,100689.94
2022-08-18T14:44:16.888Z,100701.72
2022-08-18T14:47:04.714Z,100706.13
2022-08-18T14:49:48.013Z,100702.56
2022-08-18T14:52:29.884Z,100690.28
2022-08-18T14:55:12.266Z,100689.50
2022-08-18T14:57:55.263Z,100681.28
2022-08-18T15:01:13.178Z,100674.75
2022-08-18T15:03:56.751Z,100675.06
2022-08-18T15:06:56.083Z,100669.03
2022-08-18T15:09:37.561Z,100665.25
2022-08-18T15:12:20.505Z,100676.75
2022-08-18T15:14:59.990Z,100667.69
2022-08-18T15:18:01.159Z,100670.72
2022-08-18T15:21:00.627Z,100674.03
2022-08-18T15:24:14.981Z,100675.94
2022-08-18T15:27:06.229Z,100666.41
2022-08-18T15:29:50.936Z,100666.66
2022-08-18T15:32:30.751Z,100670.50
2022-08-18T15:35:11.720Z,100656.03
2022-08-18T15:37:53.416Z,100653.78
2022-08-18T15:40:41.427Z,100659.53
2022-08-18T15:43:25.524Z,100651.59
2022-08-18T15:46:16.887Z,100642.84
2022-08-18T15:48:55.656Z,100650.50
2022-08-18T15:51:41.145Z,100646.13
2022-08-18T15:54:25.273Z,100635.72
2022-08-18T15:57:05.958Z,100626.94
2022-08-18T15:59:46.541Z,100619.25
2022-08-18T16:02:48.585Z,100617.06
2022-08-18T16:06:15.612Z,100624.13
2022-08-18T16:09:00.538Z,100617.50
2022-08-18T16:11:43.453Z,100618.84
2022-08-18T16:14:26.448Z,100613.00
2022-08-18T16:17:13.132Z,100617.84
2022-08-18T16:19:57.041Z,100610.47
2022-08-18T16:22:38.488Z,100614.44
2022-08-18T16:25:18.226Z,100614.44
2022-08-18T16:27:59.341Z,100611.09
2022-08-18T16:30:42.694Z,100602.03
2022-08-18T16:33:25.109Z,100617.56
2022-08-18T16:36:16.798Z,100608.25
2022-08-18T16:38:58.229Z,100616.41
2022-08-18T16:41:38.313Z,100613.63
2022-08-18T16:44:19.280Z,100608.16
2022-08-18T16:47:01.690Z,100608.06
2022-08-18T16:49:42.624Z,100618.69
2022-08-18T16:52:22.276Z,100615.69
2022-08-18T16:55:02.287Z,100620.03
2022-08-18T16:58:00.806Z,100627.94
2022-08-18T17:01:00.296Z,100615.56
2022-08-18T17:03:55.976Z,100612.28
2022-08-18T17:06:38.039Z,100615.84
2022-08-18T17:10:29.014Z,100620.06
2022-08-18T17:13:09.479Z,100614.38
2022-08-18T17:15:50.386Z,100620.06
2022-08-18T17:18:32.776Z,100611.59
2022-08-18T17:21:15.990Z,100619.44
2022-08-18T17:24:01.879Z,100623.75
2022-08-18T17:26:49.642Z,100616.09
2022-08-18T17:29:33.115Z,100635.34
2022-08-18T17:32:20.072Z,100623.38
2022-08-18T17:35:03.792Z,100631.28
2022-08-18T17:37:52.134Z,100632.59
2022-08-18T17:40:38.000Z,100632.03
2022-08-18T17:43:20.100Z,100638.16
2022-08-18T17:46:10.302Z,100643.88
2022-08-18T17:48:55.643Z,100641.88
2022-08-18T17:51:42.540Z,100647.13
2022-08-18T17:54:36.354Z,100649.84
2022-08-18T17:57:16.566Z,100648.44
2022-08-18T18:00:31.029Z,100647.75
2022-08-18T18:03:13.309Z,100651.25
2022-08-18T18:06:03.750Z,100648.72
2022-08-18T18:08:51.947Z,100654.25
2022-08-18T18:11:33.045Z,100650.78
2022-08-18T18:14:54.249Z,100649.66
2022-08-18T18:17:38.334Z,100656.41
2022-08-18T18:20:26.519Z,100662.63
2022-08-18T18:23:17.607Z,100656.84
2022-08-18T18:26:00.118Z,100654.03
2022-08-18T18:29:19.011Z,100654.22
2022-08-18T18:32:02.439Z,100653.91
2022-08-18T18:34:50.685Z,100654.88
2022-08-18T18:37:33.385Z,100651.03
2022-08-18T18:40:25.015Z,100664.28
2022-08-18T18:43:22.897Z,100664.78
2022-08-18T18:46:30.190Z,100665.72
2022-08-18T18:49:18.859Z,100655.84
2022-08-18T18:52:12.994Z,100648.94
2022-08-18T18:55:15.745Z,100662.03
2022-08-18T18:58:08.461Z,100670.41
2022-08-18T19:00:55.811Z,100671.59
2022-08-18T19:03:41.049Z,100675.03
2022-08-18T19:06:29.180Z,100680.63
2022-08-18T19:09:15.215Z,100679.56
2022-08-18T19:12:08.036Z,100685.56
2022-08-18T19:14:59.761Z,100680.06
2022-08-18T19:17:45.863Z,100687.78
2022-08-18T19:20:28.969Z,100683.88
2022-08-18T19:23:44.521Z,100690.50
2022-08-18T19:26:28.688Z,100687.13
2022-08-18T19:29:14.193Z,100685.34
2022-08-18T19:32:15.921Z,100675.44
2022-08-18T19:34:58.489Z,100675.13
2022-08-18T19:37:46.175Z,100671.94
2022-08-18T19:40:29.339Z,100680.16
2022-08-18T19:43:16.706Z,100679.25
2022-08-18T19:46:03.674Z,100677.34
2022-08-18T19:48:53.096Z,100671.47
2022-08-18T19:51:37.371Z,100668.84
2022-08-18T19:54:39.349Z,100680.03
2022-08-18T19:58:35.910Z,100690.06
2022-08-18T20:01:27.435Z,100688.50
2022-08-18T20:04:22.984Z,100691.34
2022-08-18T20:07:47.099Z,100698.13
2022-08-18T20:10:44.791Z,100696.31
2022-08-18T20:13:35.299Z,100690.56
2022-08-18T20:16:33.124Z,100689.13
2022-08-18T20:19:46.726Z,100693.09
2022-08-18T20:22:42.169Z,100692.28
2022-08-18T20:26:42.523Z,100697.63
2022-08-18T20:29:42.032Z,100691.50
2022-08-18T20:32:29.520Z,100707.13
2022-08-18T20:35:20.232Z,100703.25
2022-08-18T20:38:13.091Z,100701.88
2022-08-18T20:40:54.092Z,100704.47
2022-08-18T20:43:35.327Z,100710.31
2022-08-18T20:46:23.468Z,100714.44
2022-08-18T20:49:15.832Z,100715.50
2022-08-18T20:52:29.511Z,100715.34
2022-08-18T20:55:18.029Z,100730.59
2022-08-18T20:58:03.514Z,100730.44
2022-08-18T21:01:03.271Z,100723.06
2022-08-18T21:03:45.985Z,100715.94
2022-08-18T21:06:33.815Z,100720.53
2022-08-18T21:09:18.239Z,100718.56
2022-08-18T21:11:58.702Z,100728.91
2022-08-18T21:14:38.232Z,100733.50
2022-08-18T21:17:18.086Z,100738.53
2022-08-18T21:20:02.729Z,100734.63
2022-08-18T21:22:45.886Z,100731.94
2022-08-18T21:25:25.639Z,100738.22
2022-08-18T21:28:07.047Z,100737.59
2022-08-18T21:30:56.891Z,100741.59
2022-08-18T21:33:59.209Z,100738.66
2022-08-18T21:36:53.453Z,100738.72
2022-08-18T21:39:41.099Z,100739.19
2022-08-18T21:42:23.615Z,100740.00
2022-08-18T21:45:03.337Z,100740.00
2022-08-18T21:47:50.521Z,100741.66
2022-08-18T21:50:32.071Z,100755.41
2022-08-18T21:53:28.226Z,100755.31
2022-08-18T21:56:20.959Z,100757.81
2022-08-18T21:59:09.472Z,100764.50
2022-08-18T22:01:51.326Z,100764.50
2022-08-18T22:04:33.424Z,100772.44
2022-08-18T22:07:34.724Z,100762.38
2022-08-18T22:10:41.542Z,100759.97
2022-08-18T22:13:43.757Z,100745.78
2022-08-18T22:16:30.246Z,100753.06
2022-08-18T22:19:23.576Z,100748.94
2022-08-18T22:22:26.043Z,100746.28
2022-08-18T22:25:12.263Z,100751.06
2022-08-18T22:27:51.187Z,100741.81
2022-08-18T22:30:32.463Z,100742.44
2022-08-18T22:33:11.791Z,100744.97
2022-08-18T22:35:56.067Z,100735.06
2022-08-18T22:38:36.393Z,100726.75
2022-08-18T22:41:16.383Z,100727.66
2022-08-18T22:43:58.270Z,100731.22
2022-08-18T22:47:00.029Z,100733.31
2022-08-18T23:00:07.583Z,100724.94
2022-08-18T23:02:52.401Z,100740.97
2022-08-18T23:05:33.240Z,100737.88
2022-08-18T23:08:15.026Z,100745.59
2022-08-18T23:10:56.123Z,100744.13
2022-08-18T23:13:34.658Z,100752.66
2022-08-18T23:16:31.983Z,100748.13
2022-08-18T23:19:14.206Z,100748.34
2022-08-18T23:21:54.461Z,100752.28
2022-08-18T23:24:34.310Z,100752.72
2022-08-18T23:27:14.536Z,100749.81
2022-08-18T23:29:55.977Z,100748.78
2022-08-18T23:32:37.332Z,100744.88
2022-08-18T23:35:17.025Z,100747.38
2022-08-18T23:37:56.532Z,100747.38
2022-08-18T23:40:37.015Z,100749.44
2022-08-18T23:43:19.349Z,100756.69
2022-08-18T23:45:59.139Z,100751.75
2022-08-18T23:48:38.954Z,100756.13
2022-08-18T23:51:28.901Z,100767.94
2022-08-18T23:54:12.231Z,100778.56
2022-08-18T23:56:52.780Z,100775.63
2022-08-18T23:59:36.904Z,100777.50
